Aérodrome :
LOGIN :

S'inscrire | Disclaimer

   EN    FR    IT 

 










Légende :    VFR   VFR Marginal   IFR   IFR Intensif   IFR Très Intensif
Visi : 
Plafond : 
>= 8 km
>= 3000ft
5 à 8 km
1000 à 3000 ft
1500m à 5 km
500 à 1000 ft
800 à 1500m
200 à 500 ft
< 800m
< 200 ft
Symboles :   Orages  Brouillard  Fortes neiges  Fortes précipitations  Vent > 20 kt
SIGMETs :   Divers  Orages  Givrage  Turbulence  Onde Orograph.  Cendres Volcan.







- Altitude de l'aérodrome : 31 ft
- Code IATA : INV
- Voir les cartes d'approche


EGPE - Inverness

DERNIER METAR :
  • 240720Z 26011KT 9999 FEW015 SCT022 BKN031 10/06 Q1015

METARs EXPIRÉS :
  • 240650Z 27013KT 9999 FEW018 BKN026 11/06 Q1015
  • 240620Z 26011KT 9999 FEW018 BKN026 11/06 Q1015
  • 240550Z 25010KT 9999 SCT022 BKN031 10/06 Q1014
  • 240520Z 25009KT 9999 FEW022 SCT032 09/06 Q1014
  • 240450Z 24009KT 9999 SCT022 09/06 Q1014

TAF TAF EGPE
Valide du 24 à 06h jusqu'au 24 à 15h UTC


240455Z 2406/2415 25010KT 9999 FEW015 BKN020
ATIS : +44 1667 464 255
Pas de NOTAMs connus pour ce terrain.



MET'MAP, la Météo Aéronautique d'un coup d'oeil ! - Copyright ORBIFLY Décembre 2007 - Disclaimer

ORBIFLY MET'MAP TEAM :

Programmation & Développement : Alexandra Zaïnal
Conception & Développement : Baudouin d'Aumeries
Co-Programmation & Développement : Marc-Olivier Méhu
Soutien technique & logistique : Manuel Goepfert

Contact : metmap@orbifly.com




SOURCES & CREDITS :

   NOAA